Loma Mar, California
Current Conditions -  °F | °C
As of 8:47 PM on Thursday 23 Oct 2014 (Local Time) from KPAO Reporting Station
Clear Clear  
Wind Chill: 61°   Ceiling: Unl
Heat Index: 61°   Visibility: 10mi
Dew Point: 57°   Wind: 6mph
Humidity: 88%   Direction: 320°NW
Pressure: 29.97"   Gusts: NA
Location:  37.27°N, 122.31°W
Report Text: KPAO 240347Z 32005KT 10SM SKC 16/14 A2997 RMK LAST
Loading
Personal Weather Stations






























Interactive Weather Map
Tropical Storm Tracking
New forecast layout! Learn more

10-Day Weather Forecast

Advertisements
Track Severe Weather on mobile